AirNav   TITAN Aviation Fuels
 
 973 users online  

27W Lake Wenatchee State Airport
Leavenworth, Washington, USA

GOING TO LEAVENWORTH?


FAA INFORMATION EFFECTIVE 09 SEPTEMBER 2021

Location

FAA Identifier: 27W
Lat/Long: 47-49-09.8890N 120-43-11.6190W
47-49.164817N 120-43.193650W
47.8194136,-120.7198942
(estimated)
Elevation: 1939 ft. / 591 m (estimated)
Variation: 20E (1985)
From city: 14 miles NW of LEAVENWORTH, WA
Time zone: UTC -7 (UTC -8 during Standard Time)
Zip code: 98826

Airport Operations

Airport use: Open to the public
Activation date: 10/1948
Control tower: no
ARTCC: SEATTLE CENTER
FSS: SEATTLE FLIGHT SERVICE STATION
NOTAMs facility: SEA (NOTAM-D service available)
Attendance: UNATNDD
Wind indicator: yes, TWO WINDSOCKS, ONE AT EACH RWY END.
Segmented circle: no

Airport Communications

CTAF: 122.9

Nearby radio navigation aids

VOR radial/distance  VOR name  Freq  Var
EATr306/32.5WENATCHEE VOR/DME111.0015E

Airport Services

Parking: tiedowns
Airframe service: NONE
Powerplant service: NONE
Bottled oxygen: NONE
Bulk oxygen: NONE

Runway Information

Runway 9/27

Dimensions: 2473 x 100 ft. / 754 x 30 m
Surface: turf, in fair condition
RUNWAY 9  RUNWAY 27
Latitude: 47-49.232500N47-49.097133N
Longitude: 120-43.478450W120-42.908850W
Elevation: 1936.0 ft.1927.0 ft.
Traffic pattern: leftleft
Runway heading: 089 magnetic, 109 true269 magnetic, 289 true
Obstructions: 15 ft. road, 105 ft. left of centerline
75 FT TREES 1000 FT PAST RY END BOTH SIDES OF CNTRLN.
15 ft. road, 104 ft. right of centerline
70 FT TREES 450 FT PAST RY END, BOTH SIDES OF CNTRLN.

Airport Ownership and Management from official FAA records

Ownership: Publicly-owned
Owner: WSDOT AVIATION DIVISION
7702 TERMINAL STREET SW
TUMWATER, WA 98501-7264
Phone (800) 552-0666
800 NUMBER FOR WA STATE CALLS ONLY.
Manager: G. PAUL WOLF
7702 TERMINAL STREET SW
TUMWATER, WA 98501-7264
Phone (360) 618-2477

Airport Operational Statistics

Aircraft operations: avg 50/month *
100% transient general aviation
* for 12-month period ending 31 December 2017

Additional Remarks

ARPT CLSD 1 OCT-1 JUN.
DENSITY ALTITUDE.
PEDESTRIANS; VEHICLES AND ANIMALS ON & INVOF RY.
CTC WA STATE AVIATION DIVISION 360-709-8015 OR 1-800-552-0666 WA AREA FOR FACILITY INFO PRIOR TO USE.
RY MARKED WITH REFLECTORS DURING DATES AIRPORT IS OPEN.
FOR ACFT ACCIDENTS/INCIDENTS CTC WA STATE EMERGENCY OPERATIONS CENTER 800-258-5990.
FOR CD CTC SEATTLE ARTCC AT 253-351-3694.

Instrument Procedures

There are no published instrument procedures at 27W.

Some nearby airports with instrument procedures:

KEAT - Pangborn Memorial Airport (33 nm SE)
KELN - Bowers Field Airport (48 nm S)
S43 - Harvey Field Airport (56 nm W)
KEPH - Ephrata Municipal Airport (58 nm SE)
KAWO - Arlington Municipal Airport (61 nm W)
 
Loc | Ops | Rwys | IFR | FBO | Links
Com | Nav | Svcs | Stats | Notes
Area around 27W (Lake Wenatchee State Airport)
 
Road maps at: MapQuest Bing Google
 
Aerial photo
WARNING: Photo may not be current or correct
Aerial photo of 27W (Lake Wenatchee State Airport)
Photo by Bryan J. Painter
Taken in December 2008
from 2700 feet

Do you have a better or more recent aerial photo of Lake Wenatchee State Airport that you would like to share? If so, please send us your photo.

 
Sectional chart

 
Airport distance calculator
Flying to Lake Wenatchee State Airport? Find the distance to fly.

From to 27W

Sunrise and sunset
Times for 16-Sep-2021
 Local
(UTC-7)
 Zulu
(UTC)
Morning civil twilight06:1113:11
Sunrise06:4313:43
Sunset19:1302:13
Evening civil twilight19:4402:44

Current date and time
Zulu (UTC)  16-Sep-2021 12:16:51
Local (UTC-7)  16-Sep-2021 05:16:51
 
METAR
KEAT 
33nm SE 
161155Z AUTO 31008KT 10SM CLR 09/M02 A3008 RMK AO2 SLP186 T00941017 10128 20089 53016
KSMP 
41nm SW 
161156Z AUTO 22004KT 6SM BR SCT001 03/02 A3013 RMK AO2 SLP212 70014 T00280017 10044 20028 51007
KS52 
43nm NE 
161155Z AUTO 00000KT 10SM CLR 03/M02 A3012 RMK AO2 T00281025 10109 20025
KELN 
48nm S 
161153Z AUTO 32014KT 10SM CLR 08/01 A3008 RMK AO2 SLP187 T00830011 10106 20083 53008
TAF
KEAT 
33nm SE 
161120Z 1612/1712 33012KT P6SM FEW200 FM161300 30009KT P6SM SKC FM161900 12005KT P6SM FEW250 FM170500 30008KT P6SM SCT130 BKN200
NOTAMs
Click for the latest NOTAMs
NOTAMs are issued by the DoD/FAA and will open in a separate window not controlled by AirNav.

 

 
 

Would you like to see your business listed on this page?

 If your business provides an interesting product or service to pilots, flight crews, aircraft, or users of the Lake Wenatchee State Airport, you should consider listing it here.  To start the listing process, click on the button below
 
Add a business
 

Other Pages about Lake Wenatchee State Airport

www.wsdot.wa.gov/...
 
Update a link
 
Copyright © AirNav, LLC. All rights reserved. Privacy Policy  Contact